sensor_id;sensor_type;location;lat;lon;timestamp;pressure;altitude;pressure_sealevel;temperature;humidity
38026;BME280;23836;48.430;9.888;2022-09-09T00:09:10;94884.72;;;13.72;81.04
38026;BME280;23836;48.430;9.888;2022-09-09T00:14:10;94821.31;;;13.42;80.51
38026;BME280;23836;48.430;9.888;2022-09-09T00:23:54;94898.91;;;13.83;80.08
38026;BME280;23836;48.430;9.888;2022-09-09T00:34:19;94881.50;;;13.70;81.00
38026;BME280;23836;48.430;9.888;2022-09-09T00:39:21;94878.84;;;13.70;81.69
38026;BME280;23836;48.430;9.888;2022-09-09T00:44:34;94886.34;;;13.68;79.70
38026;BME280;23836;48.430;9.888;2022-09-09T00:54:46;94891.13;;;13.66;81.60
38026;BME280;23836;48.430;9.888;2022-09-09T00:59:52;94887.38;;;13.67;81.66
38026;BME280;23836;48.430;9.888;2022-09-09T01:04:44;94891.41;;;13.74;80.79
38026;BME280;23836;48.430;9.888;2022-09-09T01:14:48;94889.25;;;13.71;79.82
38026;BME280;23836;48.430;9.888;2022-09-09T01:19:55;94889.22;;;13.41;80.79
38026;BME280;23836;48.430;9.888;2022-09-09T01:25:07;94886.22;;;13.32;81.65
38026;BME280;23836;48.430;9.888;2022-09-09T01:30:14;94878.28;;;13.37;80.48
38026;BME280;23836;48.430;9.888;2022-09-09T01:35:34;94878.19;;;13.16;80.91
38026;BME280;23836;48.430;9.888;2022-09-09T01:40:28;94868.75;;;12.93;81.91
38026;BME280;23836;48.430;9.888;2022-09-09T01:45:21;94868.22;;;12.96;79.99
38026;BME280;23836;48.430;9.888;2022-09-09T01:50:15;94870.31;;;12.79;81.81
38026;BME280;23836;48.430;9.888;2022-09-09T01:55:06;94824.69;;;12.32;82.16
38026;BME280;23836;48.430;9.888;2022-09-09T02:05:09;94863.47;;;13.03;82.53
38026;BME280;23836;48.430;9.888;2022-09-09T02:10:21;94855.94;;;12.90;80.96
38026;BME280;23836;48.430;9.888;2022-09-09T02:20:19;94866.28;;;12.71;81.25
38026;BME280;23836;48.430;9.888;2022-09-09T02:25:14;94863.31;;;12.67;83.09
38026;BME280;23836;48.430;9.888;2022-09-09T02:30:06;94866.03;;;12.73;82.35
38026;BME280;23836;48.430;9.888;2022-09-09T02:35:19;94868.44;;;12.79;82.06
38026;BME280;23836;48.430;9.888;2022-09-09T02:40:12;94866.09;;;12.88;81.54
38026;BME280;23836;48.430;9.888;2022-09-09T02:45:06;94873.78;;;12.79;81.10
38026;BME280;23836;48.430;9.888;2022-09-09T02:55:02;94869.81;;;12.82;81.43
38026;BME280;23836;48.430;9.888;2022-09-09T02:59:59;94869.25;;;12.80;82.14
38026;BME280;23836;48.430;9.888;2022-09-09T03:04:51;94759.78;;;12.11;82.42
38026;BME280;23836;48.430;9.888;2022-09-09T03:09:43;94862.38;;;12.99;84.18
38026;BME280;23836;48.430;9.888;2022-09-09T03:14:34;94858.38;;;13.12;81.89
38026;BME280;23836;48.430;9.888;2022-09-09T03:19:25;94851.72;;;13.10;82.17
38026;BME280;23836;48.430;9.888;2022-09-09T03:24:15;94815.31;;;12.93;81.48
38026;BME280;23836;48.430;9.888;2022-09-09T03:29:06;94859.25;;;13.28;82.84
38026;BME280;23836;48.430;9.888;2022-09-09T03:33:57;94873.72;;;13.37;83.52
38026;BME280;23836;48.430;9.888;2022-09-09T03:38:48;94868.50;;;12.31;87.96
38026;BME280;23836;48.430;9.888;2022-09-09T03:43:39;94876.81;;;11.38;95.35
38026;BME280;23836;48.430;9.888;2022-09-09T03:48:29;94886.63;;;11.59;98.61
38026;BME280;23836;48.430;9.888;2022-09-09T03:53:21;94886.00;;;11.85;97.87
38026;BME280;23836;48.430;9.888;2022-09-09T03:58:15;94877.03;;;12.34;98.28
38026;BME280;23836;48.430;9.888;2022-09-09T04:03:10;94874.06;;;12.83;95.40
38026;BME280;23836;48.430;9.888;2022-09-09T04:08:01;94866.69;;;13.21;92.62
38026;BME280;23836;48.430;9.888;2022-09-09T04:12:51;94851.16;;;13.02;90.73
38026;BME280;23836;48.430;9.888;2022-09-09T04:17:42;94855.84;;;12.17;94.78
38026;BME280;23836;48.430;9.888;2022-09-09T04:22:33;94839.19;;;12.47;98.83
38026;BME280;23836;48.430;9.888;2022-09-09T04:27:24;94868.53;;;13.10;94.36
38026;BME280;23836;48.430;9.888;2022-09-09T04:32:15;94875.81;;;13.25;90.82
38026;BME280;23836;48.430;9.888;2022-09-09T04:37:08;94882.28;;;13.50;89.10
38026;BME280;23836;48.430;9.888;2022-09-09T04:41:59;94869.22;;;13.59;89.38
38026;BME280;23836;48.430;9.888;2022-09-09T04:46:50;94868.38;;;13.53;89.38
38026;BME280;23836;48.430;9.888;2022-09-09T04:51:40;94875.50;;;13.11;90.90
38026;BME280;23836;48.430;9.888;2022-09-09T04:56:31;94872.75;;;12.32;97.72
38026;BME280;23836;48.430;9.888;2022-09-09T05:01:22;94875.47;;;13.01;97.94
38026;BME280;23836;48.430;9.888;2022-09-09T05:06:18;94874.88;;;12.83;97.66
38026;BME280;23836;48.430;9.888;2022-09-09T05:16:13;94876.88;;;13.29;95.93
38026;BME280;23836;48.430;9.888;2022-09-09T05:21:04;94855.41;;;12.88;98.07
38026;BME280;23836;48.430;9.888;2022-09-09T05:25:57;94791.78;;;12.80;97.15
38026;BME280;23836;48.430;9.888;2022-09-09T05:30:57;94869.72;;;13.61;93.92
38026;BME280;23836;48.430;9.888;2022-09-09T05:58:56;94890.34;;;13.96;99.84
38026;BME280;23836;48.430;9.888;2022-09-09T06:03:47;94876.41;;;14.15;96.83
38026;BME280;23836;48.430;9.888;2022-09-09T06:14:25;94847.41;;;14.53;94.02
38026;BME280;23836;48.430;9.888;2022-09-09T06:19:18;94905.59;;;13.80;99.49
38026;BME280;23836;48.430;9.888;2022-09-09T06:35:52;94890.56;;;14.36;98.13
38026;BME280;23836;48.430;9.888;2022-09-09T07:26:57;94896.75;;;15.22;100.00
38026;BME280;23836;48.430;9.888;2022-09-09T07:31:48;94901.84;;;15.24;100.00
38026;BME280;23836;48.430;9.888;2022-09-09T07:36:39;94863.22;;;15.64;96.16
38026;BME280;23836;48.430;9.888;2022-09-09T07:41:41;94909.16;;;15.58;96.43
38026;BME280;23836;48.430;9.888;2022-09-09T07:46:34;94912.88;;;15.62;96.87
38026;BME280;23836;48.430;9.888;2022-09-09T07:51:28;94883.34;;;15.67;96.33
38026;BME280;23836;48.430;9.888;2022-09-09T07:56:20;94919.72;;;16.52;97.88
38026;BME280;23836;48.430;9.888;2022-09-09T08:01:26;94907.13;;;17.63;91.32
38026;BME280;23836;48.430;9.888;2022-09-09T08:06:18;94904.69;;;18.80;82.03
38026;BME280;23836;48.430;9.888;2022-09-09T08:11:11;94918.28;;;19.44;79.76
38026;BME280;23836;48.430;9.888;2022-09-09T08:16:10;94922.34;;;19.83;75.95
38026;BME280;23836;48.430;9.888;2022-09-09T08:21:09;94928.19;;;19.49;83.93
38026;BME280;23836;48.430;9.888;2022-09-09T08:26:06;94929.75;;;19.77;78.16
38026;BME280;23836;48.430;9.888;2022-09-09T08:31:07;94915.22;;;20.10;79.24
38026;BME280;23836;48.430;9.888;2022-09-09T08:35:57;94932.84;;;20.53;74.11
38026;BME280;23836;48.430;9.888;2022-09-09T08:40:49;94928.59;;;21.41;73.42
38026;BME280;23836;48.430;9.888;2022-09-09T08:45:59;94908.06;;;21.48;69.19
38026;BME280;23836;48.430;9.888;2022-09-09T08:50:52;94936.16;;;20.27;75.19
38026;BME280;23836;48.430;9.888;2022-09-09T09:05:40;94927.44;;;20.07;75.71
38026;BME280;23836;48.430;9.888;2022-09-09T09:10:51;94920.63;;;21.27;69.64
38026;BME280;23836;48.430;9.888;2022-09-09T09:15:48;94909.09;;;22.96;65.88
38026;BME280;23836;48.430;9.888;2022-09-09T09:21:02;94918.75;;;23.23;60.39
38026;BME280;23836;48.430;9.888;2022-09-09T09:26:00;94916.16;;;22.88;59.50
38026;BME280;23836;48.430;9.888;2022-09-09T09:31:10;94868.25;;;21.40;66.67
38026;BME280;23836;48.430;9.888;2022-09-09T09:36:02;94914.38;;;21.17;67.69
38026;BME280;23836;48.430;9.888;2022-09-09T09:40:58;94931.44;;;20.10;67.89
38026;BME280;23836;48.430;9.888;2022-09-09T09:45:49;94921.69;;;20.00;71.38
38026;BME280;23836;48.430;9.888;2022-09-09T09:55:51;94882.41;;;25.25;56.45
38026;BME280;23836;48.430;9.888;2022-09-09T10:00:51;94888.81;;;26.07;54.60
38026;BME280;23836;48.430;9.888;2022-09-09T10:05:45;94869.25;;;27.41;48.49
38026;BME280;23836;48.430;9.888;2022-09-09T10:10:47;94893.22;;;27.83;44.84
38026;BME280;23836;48.430;9.888;2022-09-09T10:21:26;94887.19;;;25.03;49.77
38026;BME280;23836;48.430;9.888;2022-09-09T10:26:50;94889.91;;;21.40;58.95
38026;BME280;23836;48.430;9.888;2022-09-09T10:31:53;94897.22;;;21.31;57.55
38026;BME280;23836;48.430;9.888;2022-09-09T10:36:51;94891.53;;;21.41;61.09
38026;BME280;23836;48.430;9.888;2022-09-09T11:02:28;94891.22;;;21.51;58.83
38026;BME280;23836;48.430;9.888;2022-09-09T11:07:50;94883.28;;;21.99;56.38
38026;BME280;23836;48.430;9.888;2022-09-09T11:12:46;94877.47;;;23.60;53.66
38026;BME280;23836;48.430;9.888;2022-09-09T11:17:52;94886.78;;;23.80;52.84
38026;BME280;23836;48.430;9.888;2022-09-09T11:57:35;94887.19;;;19.47;63.84
38026;BME280;23836;48.430;9.888;2022-09-09T12:02:28;94878.00;;;19.34;59.09
38026;BME280;23836;48.430;9.888;2022-09-09T12:18:41;94867.44;;;19.60;59.43
38026;BME280;23836;48.430;9.888;2022-09-09T12:46:32;94831.63;;;20.67;55.32
38026;BME280;23836;48.430;9.888;2022-09-09T12:57:12;94845.78;;;20.73;53.69
38026;BME280;23836;48.430;9.888;2022-09-09T13:08:08;94831.28;;;19.84;58.60
38026;BME280;23836;48.430;9.888;2022-09-09T13:13:40;94710.03;;;19.28;57.22
38026;BME280;23836;48.430;9.888;2022-09-09T13:18:43;94820.13;;;20.30;55.25
38026;BME280;23836;48.430;9.888;2022-09-09T13:23:51;94811.69;;;20.23;55.56
38026;BME280;23836;48.430;9.888;2022-09-09T13:28:46;94795.88;;;20.48;60.51
38026;BME280;23836;48.430;9.888;2022-09-09T13:33:39;94797.78;;;20.47;56.98
38026;BME280;23836;48.430;9.888;2022-09-09T13:38:58;94794.53;;;20.28;56.76
38026;BME280;23836;48.430;9.888;2022-09-09T13:54:52;94787.38;;;19.55;60.25
38026;BME280;23836;48.430;9.888;2022-09-09T14:00:05;94789.03;;;19.65;58.65
38026;BME280;23836;48.430;9.888;2022-09-09T14:05:00;94807.69;;;19.16;56.40
38026;BME280;23836;48.430;9.888;2022-09-09T14:09:54;94805.78;;;19.53;60.82
38026;BME280;23836;48.430;9.888;2022-09-09T14:32:11;94794.34;;;21.31;57.22
38026;BME280;23836;48.430;9.888;2022-09-09T14:43:04;94799.78;;;21.66;54.55
38026;BME280;23836;48.430;9.888;2022-09-09T15:34:20;94806.44;;;21.25;51.73
38026;BME280;23836;48.430;9.888;2022-09-09T15:51:04;94807.38;;;21.11;54.19
38026;BME280;23836;48.430;9.888;2022-09-09T15:56:34;94807.06;;;21.22;51.36
38026;BME280;23836;48.430;9.888;2022-09-09T16:01:31;94801.59;;;20.87;53.43
38026;BME280;23836;48.430;9.888;2022-09-09T16:17:55;94826.81;;;20.33;54.21
38026;BME280;23836;48.430;9.888;2022-09-09T16:34:45;94845.22;;;19.40;56.09
38026;BME280;23836;48.430;9.888;2022-09-09T16:45:51;94851.50;;;19.72;55.28
38026;BME280;23836;48.430;9.888;2022-09-09T16:50:41;94845.31;;;19.72;56.25
38026;BME280;23836;48.430;9.888;2022-09-09T17:01:37;94864.03;;;19.68;55.69
38026;BME280;23836;48.430;9.888;2022-09-09T17:18:01;94863.00;;;18.30;55.89
38026;BME280;23836;48.430;9.888;2022-09-09T17:34:25;94879.38;;;17.82;57.52
38026;BME280;23836;48.430;9.888;2022-09-09T17:50:57;94886.59;;;16.86;58.73
38026;BME280;23836;48.430;9.888;2022-09-09T18:13:42;94939.16;;;17.41;59.78
38026;BME280;23836;48.430;9.888;2022-09-09T18:59:02;94967.41;;;17.19;63.97
38026;BME280;23836;48.430;9.888;2022-09-09T19:09:39;94966.56;;;17.00;64.51
38026;BME280;23836;48.430;9.888;2022-09-09T19:14:30;94980.47;;;17.07;64.68
38026;BME280;23836;48.430;9.888;2022-09-09T19:30:56;95013.28;;;16.05;69.21
38026;BME280;23836;48.430;9.888;2022-09-09T19:41:39;95022.22;;;16.70;69.58
38026;BME280;23836;48.430;9.888;2022-09-09T20:09:37;95016.72;;;16.51;67.79
38026;BME280;23836;48.430;9.888;2022-09-09T20:14:31;95017.56;;;16.46;68.79
38026;BME280;23836;48.430;9.888;2022-09-09T20:19:23;95015.72;;;16.41;72.13
38026;BME280;23836;48.430;9.888;2022-09-09T20:24:18;95011.72;;;16.39;72.09
38026;BME280;23836;48.430;9.888;2022-09-09T20:29:21;95025.81;;;16.20;72.91
38026;BME280;23836;48.430;9.888;2022-09-09T20:34:21;95016.72;;;16.16;72.09
38026;BME280;23836;48.430;9.888;2022-09-09T20:39:18;95021.22;;;15.76;72.07
38026;BME280;23836;48.430;9.888;2022-09-09T20:44:18;95022.72;;;15.98;73.37
38026;BME280;23836;48.430;9.888;2022-09-09T21:06:40;95042.13;;;15.09;73.47
38026;BME280;23836;48.430;9.888;2022-09-09T21:11:31;95050.19;;;14.88;76.54
38026;BME280;23836;48.430;9.888;2022-09-09T21:16:22;95050.47;;;14.82;76.18
38026;BME280;23836;48.430;9.888;2022-09-09T21:21:15;95047.78;;;14.71;76.33
38026;BME280;23836;48.430;9.888;2022-09-09T21:26:13;95054.78;;;14.67;76.80
38026;BME280;23836;48.430;9.888;2022-09-09T21:31:04;95049.06;;;15.25;75.68
38026;BME280;23836;48.430;9.888;2022-09-09T21:47:29;95058.91;;;15.45;74.05
38026;BME280;23836;48.430;9.888;2022-09-09T21:52:21;95068.81;;;15.45;73.38
38026;BME280;23836;48.430;9.888;2022-09-09T21:57:26;95076.31;;;15.48;74.53
38026;BME280;23836;48.430;9.888;2022-09-09T22:02:18;95073.41;;;15.34;74.90
38026;BME280;23836;48.430;9.888;2022-09-09T22:07:12;95073.91;;;15.51;74.90
38026;BME280;23836;48.430;9.888;2022-09-09T22:23:41;95065.16;;;15.15;75.81
38026;BME280;23836;48.430;9.888;2022-09-09T22:28:33;95073.50;;;14.93;77.58
38026;BME280;23836;48.430;9.888;2022-09-09T22:33:24;95054.16;;;15.11;78.86
38026;BME280;23836;48.430;9.888;2022-09-09T22:38:16;95052.50;;;15.31;76.74
38026;BME280;23836;48.430;9.888;2022-09-09T22:43:14;95046.09;;;15.27;76.67
38026;BME280;23836;48.430;9.888;2022-09-09T22:48:07;95052.63;;;14.79;78.39
38026;BME280;23836;48.430;9.888;2022-09-09T22:52:58;95047.25;;;14.69;79.78
38026;BME280;23836;48.430;9.888;2022-09-09T22:57:49;95047.50;;;14.93;80.32
38026;BME280;23836;48.430;9.888;2022-09-09T23:02:40;95052.28;;;15.17;78.65
38026;BME280;23836;48.430;9.888;2022-09-09T23:07:31;95054.69;;;15.24;78.00
38026;BME280;23836;48.430;9.888;2022-09-09T23:12:22;95053.66;;;15.04;79.44
38026;BME280;23836;48.430;9.888;2022-09-09T23:17:14;95058.47;;;15.02;79.55
38026;BME280;23836;48.430;9.888;2022-09-09T23:22:06;95060.09;;;14.98;80.66
38026;BME280;23836;48.430;9.888;2022-09-09T23:26:56;95052.31;;;15.02;79.85
38026;BME280;23836;48.430;9.888;2022-09-09T23:31:47;95064.88;;;15.11;79.79
38026;BME280;23836;48.430;9.888;2022-09-09T23:36:38;95058.19;;;15.14;80.52
38026;BME280;23836;48.430;9.888;2022-09-09T23:41:31;95056.84;;;15.11;79.49
38026;BME280;23836;48.430;9.888;2022-09-09T23:46:25;95054.50;;;14.69;82.26
38026;BME280;23836;48.430;9.888;2022-09-09T23:51:20;95043.47;;;14.50;83.26
38026;BME280;23836;48.430;9.888;2022-09-09T23:56:12;95053.16;;;14.66;83.81
